createdAt,value
2018-11-02T00:00:06.245Z,5.10
2018-11-02T00:02:35.423Z,5.53
2018-11-02T00:05:04.798Z,5.50
2018-11-02T00:07:34.226Z,4.10
2018-11-02T00:10:03.650Z,4.60
2018-11-02T00:12:32.997Z,4.53
2018-11-02T00:15:02.196Z,4.47
2018-11-02T00:17:31.544Z,4.97
2018-11-02T00:20:00.782Z,4.27
2018-11-02T00:22:30.038Z,5.47
2018-11-02T00:24:59.320Z,5.87
2018-11-02T00:27:28.671Z,5.03
2018-11-02T00:29:57.931Z,4.73
2018-11-02T00:32:27.334Z,4.40
2018-11-02T00:34:56.753Z,4.90
2018-11-02T00:37:26.052Z,5.43
2018-11-02T00:39:55.217Z,5.77
2018-11-02T00:42:24.661Z,5.30
2018-11-02T00:44:53.931Z,4.87
2018-11-02T00:47:23.351Z,4.20
2018-11-02T00:49:52.425Z,6.60
2018-11-02T00:52:21.580Z,4.90
2018-11-02T00:54:51.021Z,5.70
2018-11-02T00:57:20.559Z,6.10
2018-11-02T00:59:49.860Z,5.97
2018-11-02T01:02:19.178Z,5.00
2018-11-02T01:04:48.477Z,4.63
2018-11-02T01:07:17.771Z,5.03
2018-11-02T01:09:47.042Z,4.47
2018-11-02T01:12:16.368Z,3.43
2018-11-02T01:14:45.770Z,3.97
2018-11-02T01:17:15.085Z,3.87
2018-11-02T01:19:44.321Z,3.43
2018-11-02T01:22:13.699Z,3.70
2018-11-02T01:24:42.918Z,3.70
2018-11-02T01:27:12.167Z,3.20
2018-11-02T01:29:41.569Z,3.60
2018-11-02T01:32:10.978Z,3.63
2018-11-02T01:34:40.266Z,2.90
2018-11-02T01:37:09.781Z,3.10
2018-11-02T01:39:39.028Z,3.80
2018-11-02T01:42:08.477Z,3.57
2018-11-02T01:44:37.878Z,3.90
2018-11-02T01:47:07.499Z,3.50
2018-11-02T01:49:36.740Z,3.27
2018-11-02T01:52:06.190Z,3.40
2018-11-02T01:54:35.493Z,3.17
2018-11-02T01:57:04.758Z,3.30
2018-11-02T01:59:33.997Z,3.03
2018-11-02T02:02:03.441Z,2.80
2018-11-02T02:04:32.588Z,3.07
2018-11-02T02:07:01.881Z,2.70
2018-11-02T02:09:31.189Z,2.47
2018-11-02T02:12:00.415Z,2.73
2018-11-02T02:14:29.722Z,2.80
2018-11-02T02:16:59.330Z,2.53
2018-11-02T02:19:28.657Z,2.83
2018-11-02T02:21:58.121Z,2.27
2018-11-02T02:24:27.246Z,1.80
2018-11-02T02:26:56.506Z,2.03
2018-11-02T02:29:25.671Z,1.70
2018-11-02T02:31:54.901Z,1.83
2018-11-02T02:34:24.042Z,2.13
2018-11-02T02:36:53.305Z,2.70
2018-11-02T02:39:22.599Z,3.00
2018-11-02T02:41:51.899Z,2.90
2018-11-02T02:44:21.141Z,2.50
2018-11-02T02:46:50.417Z,2.00
2018-11-02T02:49:19.897Z,3.07
2018-11-02T02:51:49.234Z,3.03
2018-11-02T02:54:18.499Z,2.77
2018-11-02T02:56:47.765Z,4.10
2018-11-02T02:59:17.106Z,3.37
2018-11-02T03:01:46.460Z,3.63
2018-11-02T03:04:15.710Z,3.47
2018-11-02T03:06:44.969Z,3.60
2018-11-02T03:09:14.186Z,3.87
2018-11-02T03:11:43.490Z,2.97
2018-11-02T03:14:13.319Z,3.30
2018-11-02T03:16:43.029Z,2.77
2018-11-02T03:19:12.696Z,4.30
2018-11-02T03:21:42.010Z,3.70
2018-11-02T03:24:11.456Z,2.40
2018-11-02T03:26:40.836Z,3.00
2018-11-02T03:29:11.082Z,3.27
2018-11-02T03:31:40.453Z,2.20
2018-11-02T03:34:09.770Z,1.57
2018-11-02T03:36:39.257Z,1.60
2018-11-02T03:39:10.550Z,2.00
2018-11-02T03:41:39.865Z,1.73
2018-11-02T03:44:09.365Z,1.57
2018-11-02T03:46:38.938Z,2.10
2018-11-02T03:49:08.604Z,1.97
2018-11-02T03:51:37.923Z,1.47
2018-11-02T03:54:07.520Z,2.03
2018-11-02T03:56:36.723Z,1.60
2018-11-02T03:59:06.150Z,1.60
2018-11-02T04:01:35.365Z,2.10
2018-11-02T04:04:04.653Z,1.70
2018-11-02T04:06:33.917Z,2.50
2018-11-02T04:09:03.255Z,2.83
2018-11-02T04:11:32.553Z,2.30
2018-11-02T04:14:01.843Z,2.30
2018-11-02T04:16:31.119Z,2.03
2018-11-02T04:19:00.436Z,1.97
2018-11-02T04:21:29.721Z,2.67
2018-11-02T04:23:59.056Z,2.63
2018-11-02T04:26:28.441Z,2.10
2018-11-02T04:28:57.862Z,2.10
2018-11-02T04:31:27.105Z,2.20
2018-11-02T04:33:56.435Z,1.80
2018-11-02T04:36:25.805Z,2.10
2018-11-02T04:38:55.098Z,2.10
2018-11-02T04:41:24.353Z,1.63
2018-11-02T04:43:53.666Z,2.13
2018-11-02T04:46:22.910Z,2.00
2018-11-02T04:48:52.261Z,2.10
2018-11-02T04:51:21.540Z,2.20
2018-11-02T04:53:54.612Z,2.43
2018-11-02T04:56:24.889Z,1.70
2018-11-02T04:58:54.183Z,2.03
2018-11-02T05:01:23.655Z,2.20
2018-11-02T05:03:52.959Z,3.17
2018-11-02T05:06:22.290Z,2.27
2018-11-02T05:08:51.789Z,2.17
2018-11-02T05:11:21.077Z,2.50
2018-11-02T05:13:50.494Z,2.00
2018-11-02T05:16:19.689Z,2.20
2018-11-02T05:18:49.001Z,2.10
2018-11-02T05:21:18.187Z,1.83
2018-11-02T05:23:47.475Z,2.20
2018-11-02T05:26:16.739Z,1.70
2018-11-02T05:28:46.186Z,2.33
2018-11-02T05:31:15.500Z,1.87
2018-11-02T05:33:44.796Z,2.50
2018-11-02T05:36:14.098Z,2.10
2018-11-02T05:38:43.422Z,1.93
2018-11-02T05:41:12.660Z,2.10
2018-11-02T05:43:41.906Z,2.30
2018-11-02T05:46:11.065Z,2.47
2018-11-02T05:48:40.661Z,2.30
2018-11-02T05:51:09.905Z,2.63
2018-11-02T05:53:38.981Z,3.17
2018-11-02T05:56:07.925Z,2.47
2018-11-02T05:58:36.899Z,2.20
2018-11-02T06:01:05.948Z,2.63
2018-11-02T06:03:34.917Z,2.83
2018-11-02T06:06:03.902Z,3.10
2018-11-02T06:08:32.880Z,3.10
2018-11-02T06:11:01.810Z,3.23
2018-11-02T06:13:30.821Z,2.43
2018-11-02T06:15:59.779Z,2.63
2018-11-02T06:18:28.781Z,2.67
2018-11-02T06:20:57.734Z,2.00
2018-11-02T06:23:26.642Z,3.60
2018-11-02T06:25:55.637Z,3.10
2018-11-02T06:28:24.550Z,2.47
2018-11-02T06:30:53.543Z,3.33
2018-11-02T06:33:22.471Z,2.50
2018-11-02T06:35:51.871Z,4.00
2018-11-02T06:38:20.830Z,2.80
2018-11-02T06:40:49.822Z,3.17
2018-11-02T06:43:18.838Z,3.60
2018-11-02T06:45:47.842Z,2.40
2018-11-02T06:48:16.771Z,2.60
2018-11-02T06:50:46.515Z,2.83
2018-11-02T06:53:15.456Z,2.67
2018-11-02T06:55:44.566Z,2.50
2018-11-02T06:58:13.532Z,1.97
2018-11-02T07:00:42.506Z,2.70
2018-11-02T07:03:11.493Z,2.20
2018-11-02T07:05:40.544Z,2.43
2018-11-02T07:08:09.695Z,2.40
2018-11-02T07:10:38.561Z,2.03
2018-11-02T07:13:07.520Z,2.10
2018-11-02T07:15:36.527Z,2.40
2018-11-02T07:18:05.697Z,2.17
2018-11-02T07:20:34.795Z,2.60
2018-11-02T07:23:03.752Z,2.53
2018-11-02T07:25:32.752Z,2.73
2018-11-02T07:28:01.720Z,2.73
2018-11-02T07:30:30.727Z,2.70
2018-11-02T07:33:02.539Z,2.80
2018-11-02T07:35:32.275Z,2.60
2018-11-02T07:38:01.296Z,2.97
2018-11-02T07:40:30.269Z,2.77
2018-11-02T07:42:59.198Z,2.90
2018-11-02T07:45:28.202Z,2.30
2018-11-02T07:47:57.130Z,2.13
2018-11-02T07:50:26.135Z,2.10
2018-11-02T07:52:55.161Z,2.53
2018-11-02T07:55:24.175Z,2.30
2018-11-02T07:57:53.130Z,2.70
2018-11-02T08:00:22.126Z,2.80
2018-11-02T08:02:51.103Z,2.58
2018-11-02T08:05:20.106Z,2.50
2018-11-02T08:07:49.109Z,2.93
2018-11-02T08:10:18.107Z,2.80
2018-11-02T08:12:47.091Z,3.00
2018-11-02T08:15:16.018Z,2.90
2018-11-02T08:17:45.068Z,2.70
2018-11-02T08:20:14.318Z,2.33
2018-11-02T08:22:43.780Z,3.20
2018-11-02T08:25:13.196Z,2.43
2018-11-02T08:27:42.566Z,2.30
2018-11-02T08:30:12.144Z,2.40
2018-11-02T08:32:41.283Z,2.90
2018-11-02T08:35:12.175Z,2.53
2018-11-02T08:37:41.630Z,2.67
2018-11-02T08:40:12.007Z,2.80
2018-11-02T08:42:41.342Z,2.30
2018-11-02T08:45:10.915Z,2.67
2018-11-02T08:47:39.916Z,2.67
2018-11-02T08:50:10.223Z,2.53
2018-11-02T08:52:39.178Z,2.50
2018-11-02T08:55:08.187Z,2.70
2018-11-02T08:57:37.259Z,2.23
2018-11-02T09:00:07.332Z,2.17
2018-11-02T09:02:36.253Z,2.07
2018-11-02T09:05:05.753Z,2.80
2018-11-02T09:07:34.677Z,2.43
2018-11-02T09:10:04.510Z,2.87
2018-11-02T09:12:33.454Z,2.40
2018-11-02T09:15:02.437Z,3.43
2018-11-02T09:17:31.487Z,3.10
2018-11-02T09:20:00.510Z,3.20
2018-11-02T09:22:29.564Z,2.33
2018-11-02T09:24:58.947Z,2.60
2018-11-02T09:27:27.890Z,2.50
2018-11-02T09:29:56.856Z,2.13
2018-11-02T09:32:25.787Z,2.53
2018-11-02T09:34:54.778Z,3.37
2018-11-02T09:37:23.756Z,2.70
2018-11-02T09:39:52.747Z,2.80
2018-11-02T09:42:22.274Z,2.60
2018-11-02T09:44:51.312Z,3.13
2018-11-02T09:47:20.275Z,2.53
2018-11-02T09:49:49.274Z,2.10
2018-11-02T09:52:18.278Z,2.20
2018-11-02T09:54:47.267Z,2.17
2018-11-02T09:57:16.258Z,2.13
2018-11-02T09:59:45.249Z,2.83
2018-11-02T10:02:14.315Z,2.23
2018-11-02T10:04:44.291Z,2.40
2018-11-02T10:07:13.243Z,2.13
2018-11-02T10:09:42.225Z,2.50
2018-11-02T10:12:11.178Z,1.73
2018-11-02T10:14:40.165Z,1.60
2018-11-02T10:17:09.114Z,1.60
2018-11-02T10:19:38.115Z,1.90
2018-11-02T10:22:07.098Z,2.20
2018-11-02T10:24:36.163Z,1.73
2018-11-02T10:27:05.150Z,1.60
2018-11-02T10:29:34.118Z,1.60
2018-11-02T10:32:03.151Z,1.50
2018-11-02T10:34:32.163Z,1.73
2018-11-02T10:37:01.166Z,1.70
2018-11-02T10:39:30.112Z,1.70
2018-11-02T10:42:07.286Z,1.30
2018-11-02T10:44:39.259Z,1.33
2018-11-02T10:47:09.157Z,1.47
2018-11-02T10:49:38.406Z,1.70
2018-11-02T10:52:07.515Z,1.77
2018-11-02T10:54:36.944Z,1.80
2018-11-02T10:57:06.111Z,1.60
2018-11-02T10:59:35.079Z,1.83
2018-11-02T11:02:14.102Z,1.83
2018-11-02T11:04:43.038Z,1.40
2018-11-02T11:07:12.033Z,1.27
2018-11-02T11:09:41.026Z,1.23
2018-11-02T11:12:10.128Z,1.87
2018-11-02T11:14:39.034Z,1.13
2018-11-02T11:17:08.016Z,1.10
2018-11-02T11:19:37.013Z,1.80
2018-11-02T11:22:06.294Z,2.00
2018-11-02T11:24:35.293Z,1.60
2018-11-02T11:27:04.299Z,1.43
2018-11-02T11:29:33.307Z,1.50
2018-11-02T11:32:02.269Z,1.77
2018-11-02T11:34:31.230Z,1.73
2018-11-02T11:37:00.230Z,1.23
2018-11-02T11:39:29.216Z,2.03
2018-11-02T11:41:58.250Z,1.47
2018-11-02T11:44:27.216Z,1.60
2018-11-02T11:46:56.182Z,1.77
2018-11-02T11:49:25.164Z,1.50
2018-11-02T11:51:54.178Z,1.83
2018-11-02T12:00:25.422Z,1.73
2018-11-02T12:02:54.724Z,1.50
2018-11-02T12:05:24.595Z,1.60
2018-11-02T12:07:54.184Z,1.37
2018-11-02T12:10:24.720Z,1.80
2018-11-02T12:12:54.573Z,1.10
2018-11-02T12:15:24.263Z,1.10
2018-11-02T12:17:53.757Z,1.60
2018-11-02T12:20:24.426Z,0.87
2018-11-02T12:22:56.098Z,1.63
2018-11-02T12:25:25.505Z,1.40
2018-11-02T12:27:55.830Z,1.40
2018-11-02T12:30:25.126Z,1.80
2018-11-02T12:32:54.568Z,1.63
2018-11-02T12:35:23.965Z,1.20
2018-11-02T12:37:53.495Z,1.20
2018-11-02T12:40:23.718Z,1.27
2018-11-02T12:42:53.889Z,1.13
2018-11-02T12:45:23.529Z,1.63
2018-11-02T12:47:52.869Z,1.30
2018-11-02T12:50:24.476Z,1.37
2018-11-02T12:52:54.966Z,1.17
2018-11-02T12:55:24.391Z,1.03
2018-11-02T12:57:53.717Z,1.00
2018-11-02T13:00:24.925Z,1.23
2018-11-02T13:02:54.691Z,1.10
2018-11-02T13:05:23.962Z,1.33
2018-11-02T13:07:53.296Z,1.20
2018-11-02T13:10:23.407Z,1.00
2018-11-02T13:12:52.720Z,1.30
2018-11-02T13:15:23.244Z,1.00
2018-11-02T13:17:52.779Z,1.00
2018-11-02T13:20:22.145Z,1.10
2018-11-02T13:22:52.066Z,1.10
2018-11-02T13:25:22.298Z,1.30
2018-11-02T13:27:52.237Z,1.17
2018-11-02T13:30:21.754Z,1.00
2018-11-02T13:32:50.979Z,1.37
2018-11-02T13:35:20.846Z,0.97
2018-11-02T13:37:50.768Z,1.17
2018-11-02T13:40:20.230Z,1.50
2018-11-02T13:42:49.783Z,1.10
2018-11-02T13:45:19.422Z,1.10
2018-11-02T13:47:48.765Z,1.20
2018-11-02T13:50:18.285Z,0.90
2018-11-02T13:52:47.480Z,1.33
2018-11-02T13:55:16.810Z,1.00
2018-11-02T13:57:46.139Z,1.10
2018-11-02T14:00:16.899Z,1.30
2018-11-02T14:02:46.320Z,1.10
2018-11-02T14:05:16.672Z,0.80
2018-11-02T14:07:46.058Z,0.93
2018-11-02T14:10:15.413Z,1.00
2018-11-02T14:12:45.119Z,1.23
2018-11-02T14:15:15.888Z,1.43
2018-11-02T14:17:45.413Z,2.03
2018-11-02T14:20:15.166Z,1.13
2018-11-02T14:22:44.587Z,1.20
2018-11-02T14:25:15.097Z,1.03
2018-11-02T14:27:44.518Z,1.33
2018-11-02T14:30:15.848Z,1.03
2018-11-02T14:32:45.586Z,1.00
2018-11-02T14:35:14.834Z,1.10
2018-11-02T14:37:44.218Z,0.80
2018-11-02T14:40:13.483Z,1.00
2018-11-02T14:42:43.143Z,1.10
2018-11-02T14:45:14.377Z,0.97
2018-11-02T14:47:44.353Z,0.80
2018-11-02T14:50:13.872Z,1.07
2018-11-02T14:52:43.456Z,1.10
2018-11-02T14:55:13.275Z,1.20
2018-11-02T14:57:42.559Z,1.50
2018-11-02T15:00:12.539Z,1.80
2018-11-02T15:02:42.418Z,1.87
2018-11-02T15:05:12.934Z,1.40
2018-11-02T15:07:43.054Z,1.73
2018-11-02T15:10:12.384Z,1.57
2018-11-02T15:12:41.368Z,1.90
2018-11-02T15:15:11.070Z,1.50
2018-11-02T15:17:40.601Z,1.50
2018-11-02T15:20:11.672Z,1.60
2018-11-02T15:22:40.859Z,1.97
2018-11-02T15:25:10.479Z,1.83
2018-11-02T15:27:39.903Z,1.60
2018-11-02T15:30:11.178Z,1.90
2018-11-02T15:32:40.686Z,2.00
2018-11-02T15:35:10.825Z,2.37
2018-11-02T15:37:40.266Z,2.20
2018-11-02T15:40:10.686Z,1.43
2018-11-02T15:42:40.205Z,2.13
2018-11-02T15:45:11.762Z,1.30
2018-11-02T15:47:41.078Z,1.47
2018-11-02T15:50:10.961Z,1.87
2018-11-02T15:52:40.443Z,1.73
2018-11-02T15:55:10.989Z,1.90
2018-11-02T15:57:40.330Z,1.80
2018-11-02T16:00:20.979Z,1.47
2018-11-02T16:02:51.458Z,1.70
2018-11-02T16:05:20.904Z,1.90
2018-11-02T16:07:50.204Z,1.80
2018-11-02T16:10:19.639Z,1.77
2018-11-02T16:12:48.930Z,1.57
2018-11-02T16:15:18.496Z,1.97
2018-11-02T16:17:47.807Z,2.47
2018-11-02T16:20:17.301Z,1.80
2018-11-02T16:22:46.658Z,1.57
2018-11-02T16:25:16.290Z,2.17
2018-11-02T16:27:45.519Z,1.83
2018-11-02T16:30:14.863Z,1.90
2018-11-02T16:32:44.179Z,1.57
2018-11-02T16:35:13.617Z,2.03
2018-11-02T16:37:42.725Z,1.90
2018-11-02T16:40:13.907Z,2.00
2018-11-02T16:42:43.891Z,2.30
2018-11-02T16:45:14.083Z,1.53
2018-11-02T16:47:43.760Z,1.83
2018-11-02T16:50:13.973Z,1.83
2018-11-02T16:52:43.685Z,1.70
2018-11-02T16:55:12.977Z,1.60
2018-11-02T16:57:42.535Z,2.37
2018-11-02T17:00:15.948Z,2.13
2018-11-02T17:02:46.299Z,2.03
2018-11-02T17:05:16.021Z,1.57
2018-11-02T17:07:45.302Z,2.10
2018-11-02T17:10:15.482Z,2.17
2018-11-02T17:12:45.259Z,2.30
2018-11-02T17:15:14.870Z,2.70
2018-11-02T17:17:44.099Z,2.43
2018-11-02T17:20:14.857Z,2.50
2018-11-02T17:22:44.035Z,2.27
2018-11-02T17:25:13.592Z,1.70
2018-11-02T17:27:42.857Z,1.30
2018-11-02T17:30:16.008Z,1.97
2018-11-02T17:32:45.169Z,1.80
2018-11-02T17:35:14.461Z,1.87
2018-11-02T17:37:43.729Z,2.07
2018-11-02T17:40:14.366Z,2.17
2018-11-02T17:42:44.236Z,2.30
2018-11-02T17:45:13.546Z,3.20
2018-11-02T17:47:43.151Z,2.97
2018-11-02T17:50:13.729Z,3.20
2018-11-02T17:52:44.051Z,2.93
2018-11-02T17:55:13.377Z,3.20
2018-11-02T17:57:42.799Z,3.00
2018-11-02T18:00:13.844Z,2.77
2018-11-02T18:02:44.004Z,2.07
2018-11-02T18:05:13.874Z,2.80
2018-11-02T18:07:43.665Z,2.20
2018-11-02T18:10:14.995Z,2.73
2018-11-02T18:12:44.648Z,1.97
2018-11-02T18:15:14.011Z,2.33
2018-11-02T18:17:43.351Z,2.67
2018-11-02T18:20:14.396Z,2.50
2018-11-02T18:22:43.656Z,2.43
2018-11-02T18:25:13.650Z,2.60
2018-11-02T18:27:43.691Z,2.40
2018-11-02T18:30:13.391Z,3.63
2018-11-02T18:32:42.591Z,2.53
2018-11-02T18:35:11.900Z,2.60
2018-11-02T18:37:41.648Z,3.30
2018-11-02T18:40:12.521Z,2.73
2018-11-02T18:42:41.854Z,2.97
2018-11-02T18:45:13.379Z,3.33
2018-11-02T18:47:46.744Z,3.27
2018-11-02T18:50:17.200Z,3.47
2018-11-02T18:52:47.389Z,4.10
2018-11-02T18:55:18.272Z,3.70
2018-11-02T18:57:47.550Z,3.13
2018-11-02T19:00:17.343Z,3.80
2018-11-02T19:02:46.589Z,3.77
2018-11-02T19:05:17.176Z,3.70
2018-11-02T19:07:46.567Z,3.50
2018-11-02T19:10:16.113Z,3.70
2018-11-02T19:12:45.690Z,4.17
2018-11-02T19:15:16.808Z,3.37
2018-11-02T19:17:46.170Z,3.53
2018-11-02T19:20:15.767Z,4.00
2018-11-02T19:22:45.505Z,3.10
2018-11-02T19:25:15.667Z,3.20
2018-11-02T19:27:46.122Z,3.17
2018-11-02T19:30:15.915Z,2.70
2018-11-02T19:32:45.187Z,4.47
2018-11-02T19:35:15.065Z,3.03
2018-11-02T19:37:44.374Z,3.67
2018-11-02T19:40:14.904Z,3.20
2018-11-02T19:42:44.660Z,3.30
2018-11-02T19:45:14.156Z,2.90
2018-11-02T19:47:48.483Z,3.40
2018-11-02T19:50:19.455Z,2.80
2018-11-02T19:52:48.706Z,3.40
2018-11-02T19:55:17.862Z,3.27
2018-11-02T19:57:47.007Z,2.57
2018-11-02T20:00:16.924Z,3.53
2018-11-02T20:02:46.281Z,2.47
2018-11-02T20:05:16.892Z,2.30
2018-11-02T20:07:46.155Z,2.90
2018-11-02T20:10:16.221Z,2.73
2018-11-02T20:12:45.792Z,2.77
2018-11-02T20:15:15.698Z,3.23
2018-11-02T20:17:45.811Z,3.07
2018-11-02T20:20:16.278Z,3.80
2018-11-02T20:22:45.753Z,3.10
2018-11-02T20:25:16.166Z,3.50
2018-11-02T20:27:45.702Z,2.40
2018-11-02T20:30:16.742Z,2.03
2018-11-02T20:32:46.181Z,2.90
2018-11-02T20:35:15.599Z,2.70
2018-11-02T20:37:45.133Z,3.23
2018-11-02T20:40:16.835Z,3.13
2018-11-02T20:42:46.476Z,2.77
2018-11-02T20:45:16.417Z,2.87
2018-11-02T20:47:51.142Z,2.63
2018-11-02T20:50:20.710Z,2.60
2018-11-02T20:52:50.258Z,2.80
2018-11-02T20:55:19.750Z,3.27
2018-11-02T20:57:49.269Z,3.40
2018-11-02T21:00:20.971Z,2.63
2018-11-02T21:02:50.332Z,2.37
2018-11-02T21:05:20.395Z,3.37
2018-11-02T21:07:50.052Z,2.70
2018-11-02T21:10:20.301Z,2.40
2018-11-02T21:12:49.941Z,2.60
2018-11-02T21:15:20.830Z,3.10
2018-11-02T21:17:50.558Z,2.33
2018-11-02T21:20:22.971Z,2.43
2018-11-02T21:22:52.198Z,2.40
2018-11-02T21:25:21.813Z,2.40
2018-11-02T21:27:51.222Z,3.50
2018-11-02T21:30:22.872Z,2.77
2018-11-02T21:32:52.965Z,3.10
2018-11-02T21:35:23.898Z,3.00
2018-11-02T21:37:53.310Z,2.70
2018-11-02T21:40:24.722Z,2.90
2018-11-02T21:42:53.981Z,2.30
2018-11-02T21:45:24.001Z,2.57
2018-11-02T21:47:53.307Z,2.80
2018-11-02T21:50:22.606Z,2.37
2018-11-02T21:52:51.925Z,2.60
2018-11-02T21:55:21.126Z,2.40
2018-11-02T21:57:50.510Z,3.23
2018-11-02T22:00:20.808Z,3.00
2018-11-02T22:02:50.146Z,2.67
2018-11-02T22:05:19.597Z,2.33
2018-11-02T22:07:49.690Z,2.47
2018-11-02T22:10:19.055Z,3.37
2018-11-02T22:12:48.408Z,2.77
2018-11-02T22:15:17.732Z,1.97
2018-11-02T22:17:47.078Z,2.50
2018-11-02T22:20:16.674Z,2.00
2018-11-02T22:22:45.948Z,2.67
2018-11-02T22:25:18.456Z,2.83
2018-11-02T22:27:48.540Z,2.60
2018-11-02T22:30:18.909Z,2.20
2018-11-02T22:32:48.505Z,2.70
2018-11-02T22:35:17.693Z,3.07
2018-11-02T22:37:47.103Z,2.23
2018-11-02T22:40:16.814Z,2.97
2018-11-02T22:42:45.809Z,2.60
2018-11-02T22:45:15.559Z,3.50
2018-11-02T22:47:49.748Z,2.10
2018-11-02T22:50:18.702Z,2.53
2018-11-02T22:52:47.701Z,2.60
2018-11-02T22:55:16.626Z,1.80
2018-11-02T22:57:45.605Z,2.70
2018-11-02T23:00:17.561Z,2.43
2018-11-02T23:02:47.342Z,3.40
2018-11-02T23:05:16.282Z,3.43
2018-11-02T23:07:45.505Z,2.83
2018-11-02T23:10:14.458Z,3.17
2018-11-02T23:12:43.533Z,3.13
2018-11-02T23:15:13.085Z,2.80
2018-11-02T23:17:42.066Z,3.10
2018-11-02T23:20:13.416Z,2.43
2018-11-02T23:22:42.430Z,3.40
2018-11-02T23:25:12.165Z,2.77
2018-11-02T23:27:42.619Z,3.23
2018-11-02T23:30:11.867Z,3.30
2018-11-02T23:32:40.857Z,4.03
2018-11-02T23:35:10.126Z,3.43
2018-11-02T23:37:39.121Z,3.23
2018-11-02T23:40:08.976Z,2.90
2018-11-02T23:42:38.050Z,2.90
2018-11-02T23:45:07.337Z,2.97
2018-11-02T23:47:36.351Z,3.70
2018-11-02T23:50:06.455Z,3.17
2018-11-02T23:52:35.492Z,3.83
2018-11-02T23:55:04.455Z,3.80
2018-11-02T23:57:33.429Z,3.77
